Terminal Aerodrome Forecast
Issued by NWS Atlanta, GA

Home | Current Version | Previous Version | Text Only | Print | Product List | Glossary On
Versions: 1 2 3 4 5 6 7 8 9 10 11 12 13 14 15 16 17 18 19 20 21 22 23 24 25 26 27 28 29
000
FTAK31 PAJN 271700
TAFAHN
TAF
PAHN 271736Z 2718/2818 VRB04KT P6SM FEW015 OVC025
     FM272100 11011KT P6SM FEW030 BKN050 BKN080
     FM280500 09007KT P6SM BKN080
     FM281100 09006KT P6SM BKN050 OVC080 PROB30 2813/2818 -RA
      AMD LTD TO CLD VIS AND WIND=

USA.gov is the U.S. government's official web portal to all federal, state and local government web resources and services.